sensor_id;sensor_type;location;lat;lon;timestamp;temperature;humidity
12386;DHT22;6257;57.634;18.310;2024-01-27T00:00:21;1.80;99.90
12386;DHT22;6257;57.634;18.310;2024-01-27T00:02:48;1.70;99.90
12386;DHT22;6257;57.634;18.310;2024-01-27T00:05:15;1.70;99.90
12386;DHT22;6257;57.634;18.310;2024-01-27T00:07:42;1.70;99.90
12386;DHT22;6257;57.634;18.310;2024-01-27T00:10:11;1.80;99.90
12386;DHT22;6257;57.634;18.310;2024-01-27T00:12:38;1.80;99.90
12386;DHT22;6257;57.634;18.310;2024-01-27T00:15:06;1.80;99.90
12386;DHT22;6257;57.634;18.310;2024-01-27T00:17:33;1.80;99.90
12386;DHT22;6257;57.634;18.310;2024-01-27T00:20:01;1.80;99.90
12386;DHT22;6257;57.634;18.310;2024-01-27T00:22:28;1.80;99.90
12386;DHT22;6257;57.634;18.310;2024-01-27T00:24:55;1.90;99.90
12386;DHT22;6257;57.634;18.310;2024-01-27T00:29:51;1.90;99.90
12386;DHT22;6257;57.634;18.310;2024-01-27T00:32:18;1.90;99.90
12386;DHT22;6257;57.634;18.310;2024-01-27T00:34:45;1.90;99.90
12386;DHT22;6257;57.634;18.310;2024-01-27T00:37:12;3.10;99.90
12386;DHT22;6257;57.634;18.310;2024-01-27T00:39:39;1.80;99.90
12386;DHT22;6257;57.634;18.310;2024-01-27T00:42:06;1.90;99.90
12386;DHT22;6257;57.634;18.310;2024-01-27T00:44:34;1.90;99.90
12386;DHT22;6257;57.634;18.310;2024-01-27T00:47:02;1.90;99.90
12386;DHT22;6257;57.634;18.310;2024-01-27T00:49:29;1.90;99.90
12386;DHT22;6257;57.634;18.310;2024-01-27T00:51:56;1.90;99.90
12386;DHT22;6257;57.634;18.310;2024-01-27T00:54:23;1.90;99.90
12386;DHT22;6257;57.634;18.310;2024-01-27T00:56:51;1.90;99.90
12386;DHT22;6257;57.634;18.310;2024-01-27T00:59:18;1.90;99.90
12386;DHT22;6257;57.634;18.310;2024-01-27T01:04:13;2.00;99.90
12386;DHT22;6257;57.634;18.310;2024-01-27T01:06:40;2.00;99.90
12386;DHT22;6257;57.634;18.310;2024-01-27T01:09:07;2.00;99.90
12386;DHT22;6257;57.634;18.310;2024-01-27T01:11:35;2.00;99.90
12386;DHT22;6257;57.634;18.310;2024-01-27T01:14:02;1.90;99.90
12386;DHT22;6257;57.634;18.310;2024-01-27T01:16:29;2.00;99.90
12386;DHT22;6257;57.634;18.310;2024-01-27T01:18:58;2.00;99.90
12386;DHT22;6257;57.634;18.310;2024-01-27T01:21:25;2.00;99.90
12386;DHT22;6257;57.634;18.310;2024-01-27T01:23:52;1.90;99.90
12386;DHT22;6257;57.634;18.310;2024-01-27T01:26:19;1.90;99.90
12386;DHT22;6257;57.634;18.310;2024-01-27T01:28:46;1.90;99.90
12386;DHT22;6257;57.634;18.310;2024-01-27T01:31:13;1.90;99.90
12386;DHT22;6257;57.634;18.310;2024-01-27T01:33:40;1.90;99.90
12386;DHT22;6257;57.634;18.310;2024-01-27T01:36:08;1.90;99.90
12386;DHT22;6257;57.634;18.310;2024-01-27T01:38:35;1.90;99.90
12386;DHT22;6257;57.634;18.310;2024-01-27T01:41:02;1.90;99.90
12386;DHT22;6257;57.634;18.310;2024-01-27T01:43:29;1.90;99.90
12386;DHT22;6257;57.634;18.310;2024-01-27T01:45:56;2.00;99.90
12386;DHT22;6257;57.634;18.310;2024-01-27T01:48:23;2.10;99.90
12386;DHT22;6257;57.634;18.310;2024-01-27T01:50:50;2.10;99.90
12386;DHT22;6257;57.634;18.310;2024-01-27T01:55:46;2.10;99.90
12386;DHT22;6257;57.634;18.310;2024-01-27T01:58:13;2.10;99.90
12386;DHT22;6257;57.634;18.310;2024-01-27T02:00:40;2.10;99.90
12386;DHT22;6257;57.634;18.310;2024-01-27T02:03:10;2.10;99.90
12386;DHT22;6257;57.634;18.310;2024-01-27T02:05:38;2.20;99.90
12386;DHT22;6257;57.634;18.310;2024-01-27T02:08:05;2.20;99.90
12386;DHT22;6257;57.634;18.310;2024-01-27T02:13:03;2.20;99.90
12386;DHT22;6257;57.634;18.310;2024-01-27T02:15:31;2.20;99.90
12386;DHT22;6257;57.634;18.310;2024-01-27T02:17:58;2.20;99.90
12386;DHT22;6257;57.634;18.310;2024-01-27T02:20:25;2.20;99.90
12386;DHT22;6257;57.634;18.310;2024-01-27T02:22:52;2.20;99.90
12386;DHT22;6257;57.634;18.310;2024-01-27T02:25:20;2.30;99.90
12386;DHT22;6257;57.634;18.310;2024-01-27T02:27:47;2.30;99.90
12386;DHT22;6257;57.634;18.310;2024-01-27T02:30:14;2.30;99.90
12386;DHT22;6257;57.634;18.310;2024-01-27T02:32:41;2.30;99.90
12386;DHT22;6257;57.634;18.310;2024-01-27T02:35:08;2.20;99.90
12386;DHT22;6257;57.634;18.310;2024-01-27T02:37:35;2.30;99.90
12386;DHT22;6257;57.634;18.310;2024-01-27T02:40:03;2.30;99.90
12386;DHT22;6257;57.634;18.310;2024-01-27T02:44:58;2.30;99.90
12386;DHT22;6257;57.634;18.310;2024-01-27T02:47:25;2.30;99.90
12386;DHT22;6257;57.634;18.310;2024-01-27T02:49:52;2.30;99.90
12386;DHT22;6257;57.634;18.310;2024-01-27T02:52:19;2.30;99.90
12386;DHT22;6257;57.634;18.310;2024-01-27T02:54:46;2.30;99.90
12386;DHT22;6257;57.634;18.310;2024-01-27T02:57:13;2.40;99.90
12386;DHT22;6257;57.634;18.310;2024-01-27T02:59:45;2.40;99.90
12386;DHT22;6257;57.634;18.310;2024-01-27T03:02:12;2.40;99.90
12386;DHT22;6257;57.634;18.310;2024-01-27T03:04:39;2.40;99.90
12386;DHT22;6257;57.634;18.310;2024-01-27T03:07:06;2.40;99.90
12386;DHT22;6257;57.634;18.310;2024-01-27T03:09:33;2.40;99.90
12386;DHT22;6257;57.634;18.310;2024-01-27T03:12:00;2.40;99.90
12386;DHT22;6257;57.634;18.310;2024-01-27T03:14:27;2.40;99.90
12386;DHT22;6257;57.634;18.310;2024-01-27T03:16:56;2.30;99.90
12386;DHT22;6257;57.634;18.310;2024-01-27T03:19:23;2.30;99.90
12386;DHT22;6257;57.634;18.310;2024-01-27T03:21:50;2.30;99.90
12386;DHT22;6257;57.634;18.310;2024-01-27T03:24:17;2.40;99.90
12386;DHT22;6257;57.634;18.310;2024-01-27T03:26:44;2.30;99.90
12386;DHT22;6257;57.634;18.310;2024-01-27T03:29:10;2.30;99.90
12386;DHT22;6257;57.634;18.310;2024-01-27T03:31:37;2.30;99.90
12386;DHT22;6257;57.634;18.310;2024-01-27T03:34:06;2.30;99.90
12386;DHT22;6257;57.634;18.310;2024-01-27T03:36:33;2.30;99.90
12386;DHT22;6257;57.634;18.310;2024-01-27T03:39:00;2.20;99.90
12386;DHT22;6257;57.634;18.310;2024-01-27T03:41:28;2.30;99.90
12386;DHT22;6257;57.634;18.310;2024-01-27T03:43:56;2.20;99.90
12386;DHT22;6257;57.634;18.310;2024-01-27T03:46:23;2.20;99.90
12386;DHT22;6257;57.634;18.310;2024-01-27T03:48:50;2.10;99.90
12386;DHT22;6257;57.634;18.310;2024-01-27T03:51:18;1.90;99.90
12386;DHT22;6257;57.634;18.310;2024-01-27T03:53:45;1.90;99.90
12386;DHT22;6257;57.634;18.310;2024-01-27T03:56:12;1.80;99.90
12386;DHT22;6257;57.634;18.310;2024-01-27T03:58:39;1.70;99.90
12386;DHT22;6257;57.634;18.310;2024-01-27T04:01:08;1.70;99.90
12386;DHT22;6257;57.634;18.310;2024-01-27T04:03:35;1.70;99.90
12386;DHT22;6257;57.634;18.310;2024-01-27T04:06:02;1.70;99.90
12386;DHT22;6257;57.634;18.310;2024-01-27T04:08:30;1.60;99.90
12386;DHT22;6257;57.634;18.310;2024-01-27T04:10:57;1.60;99.90
12386;DHT22;6257;57.634;18.310;2024-01-27T04:13:26;1.60;99.90
12386;DHT22;6257;57.634;18.310;2024-01-27T04:15:53;1.60;99.90
12386;DHT22;6257;57.634;18.310;2024-01-27T04:18:20;1.60;99.90
12386;DHT22;6257;57.634;18.310;2024-01-27T04:20:47;1.60;99.90
12386;DHT22;6257;57.634;18.310;2024-01-27T04:23:14;1.60;99.90
12386;DHT22;6257;57.634;18.310;2024-01-27T04:25:43;1.50;99.90
12386;DHT22;6257;57.634;18.310;2024-01-27T04:28:10;1.60;99.90
12386;DHT22;6257;57.634;18.310;2024-01-27T04:30:38;1.50;99.90
12386;DHT22;6257;57.634;18.310;2024-01-27T04:33:05;1.50;99.90
12386;DHT22;6257;57.634;18.310;2024-01-27T04:35:33;1.60;99.90
12386;DHT22;6257;57.634;18.310;2024-01-27T04:38:00;1.50;99.90
12386;DHT22;6257;57.634;18.310;2024-01-27T04:40:27;1.60;99.90
12386;DHT22;6257;57.634;18.310;2024-01-27T04:42:55;1.50;99.90
12386;DHT22;6257;57.634;18.310;2024-01-27T04:45:23;1.50;99.90
12386;DHT22;6257;57.634;18.310;2024-01-27T04:47:50;1.60;99.90
12386;DHT22;6257;57.634;18.310;2024-01-27T04:50:17;1.60;99.90
12386;DHT22;6257;57.634;18.310;2024-01-27T04:52:44;1.60;99.90
12386;DHT22;6257;57.634;18.310;2024-01-27T04:57:39;1.60;99.90
12386;DHT22;6257;57.634;18.310;2024-01-27T05:00:09;1.60;99.90
12386;DHT22;6257;57.634;18.310;2024-01-27T05:05:06;1.60;99.90
12386;DHT22;6257;57.634;18.310;2024-01-27T05:07:33;1.60;99.90
12386;DHT22;6257;57.634;18.310;2024-01-27T05:10:00;1.60;99.90
12386;DHT22;6257;57.634;18.310;2024-01-27T05:12:28;1.60;99.90
12386;DHT22;6257;57.634;18.310;2024-01-27T05:14:55;1.60;99.90
12386;DHT22;6257;57.634;18.310;2024-01-27T05:17:24;1.60;99.90
12386;DHT22;6257;57.634;18.310;2024-01-27T05:19:50;1.60;99.90
12386;DHT22;6257;57.634;18.310;2024-01-27T05:22:17;1.60;99.90
12386;DHT22;6257;57.634;18.310;2024-01-27T05:24:45;1.60;99.90
12386;DHT22;6257;57.634;18.310;2024-01-27T05:27:12;1.60;99.90
12386;DHT22;6257;57.634;18.310;2024-01-27T05:29:39;1.60;99.90
12386;DHT22;6257;57.634;18.310;2024-01-27T05:32:06;1.60;99.90
12386;DHT22;6257;57.634;18.310;2024-01-27T05:34:35;1.60;99.90
12386;DHT22;6257;57.634;18.310;2024-01-27T05:37:02;1.60;99.90
12386;DHT22;6257;57.634;18.310;2024-01-27T05:39:29;1.60;99.90
12386;DHT22;6257;57.634;18.310;2024-01-27T05:41:58;1.60;99.90
12386;DHT22;6257;57.634;18.310;2024-01-27T05:44:25;1.60;99.90
12386;DHT22;6257;57.634;18.310;2024-01-27T05:46:52;1.60;99.90
12386;DHT22;6257;57.634;18.310;2024-01-27T05:49:19;1.60;99.90
12386;DHT22;6257;57.634;18.310;2024-01-27T05:51:47;1.50;99.90
12386;DHT22;6257;57.634;18.310;2024-01-27T05:54:15;1.60;99.90
12386;DHT22;6257;57.634;18.310;2024-01-27T05:56:42;1.50;99.90
12386;DHT22;6257;57.634;18.310;2024-01-27T05:59:09;1.50;99.90
12386;DHT22;6257;57.634;18.310;2024-01-27T06:01:36;1.50;99.90
12386;DHT22;6257;57.634;18.310;2024-01-27T06:04:06;1.50;99.90
12386;DHT22;6257;57.634;18.310;2024-01-27T06:06:33;1.50;99.90
12386;DHT22;6257;57.634;18.310;2024-01-27T06:09:02;1.50;99.90
12386;DHT22;6257;57.634;18.310;2024-01-27T06:11:29;1.50;99.90
12386;DHT22;6257;57.634;18.310;2024-01-27T06:13:56;1.50;99.90
12386;DHT22;6257;57.634;18.310;2024-01-27T06:16:24;1.50;99.90
12386;DHT22;6257;57.634;18.310;2024-01-27T06:18:51;1.40;99.90
12386;DHT22;6257;57.634;18.310;2024-01-27T06:21:20;1.50;99.90
12386;DHT22;6257;57.634;18.310;2024-01-27T06:23:47;1.50;99.90
12386;DHT22;6257;57.634;18.310;2024-01-27T06:26:15;1.50;99.90
12386;DHT22;6257;57.634;18.310;2024-01-27T06:31:09;1.50;99.90
12386;DHT22;6257;57.634;18.310;2024-01-27T06:36:04;1.50;99.90
12386;DHT22;6257;57.634;18.310;2024-01-27T06:38:34;1.50;99.90
12386;DHT22;6257;57.634;18.310;2024-01-27T06:41:01;1.50;99.90
12386;DHT22;6257;57.634;18.310;2024-01-27T06:48:25;1.40;99.90
12386;DHT22;6257;57.634;18.310;2024-01-27T06:50:52;1.40;99.90
12386;DHT22;6257;57.634;18.310;2024-01-27T06:55:47;1.50;99.90
12386;DHT22;6257;57.634;18.310;2024-01-27T06:58:14;1.50;99.90
12386;DHT22;6257;57.634;18.310;2024-01-27T07:00:42;1.50;99.90
12386;DHT22;6257;57.634;18.310;2024-01-27T07:03:10;1.50;99.90
12386;DHT22;6257;57.634;18.310;2024-01-27T07:05:37;1.50;99.90
12386;DHT22;6257;57.634;18.310;2024-01-27T07:08:06;1.50;99.90
12386;DHT22;6257;57.634;18.310;2024-01-27T07:10:34;1.50;99.90
12386;DHT22;6257;57.634;18.310;2024-01-27T07:13:01;1.40;99.90
12386;DHT22;6257;57.634;18.310;2024-01-27T07:15:28;1.40;99.90
12386;DHT22;6257;57.634;18.310;2024-01-27T07:17:57;1.40;99.90
12386;DHT22;6257;57.634;18.310;2024-01-27T07:20:24;1.30;99.90
12386;DHT22;6257;57.634;18.310;2024-01-27T07:22:51;1.30;99.90
12386;DHT22;6257;57.634;18.310;2024-01-27T07:25:18;1.20;99.90
12386;DHT22;6257;57.634;18.310;2024-01-27T07:27:45;1.20;99.90
12386;DHT22;6257;57.634;18.310;2024-01-27T07:30:12;1.20;99.90
12386;DHT22;6257;57.634;18.310;2024-01-27T07:32:40;1.10;99.90
12386;DHT22;6257;57.634;18.310;2024-01-27T07:37:36;1.10;99.90
12386;DHT22;6257;57.634;18.310;2024-01-27T07:40:04;1.10;99.90
12386;DHT22;6257;57.634;18.310;2024-01-27T07:42:32;1.20;99.90
12386;DHT22;6257;57.634;18.310;2024-01-27T07:44:59;1.20;99.90
12386;DHT22;6257;57.634;18.310;2024-01-27T07:47:26;1.20;99.90
12386;DHT22;6257;57.634;18.310;2024-01-27T07:49:53;1.20;99.90
12386;DHT22;6257;57.634;18.310;2024-01-27T07:52:22;1.20;99.90
12386;DHT22;6257;57.634;18.310;2024-01-27T07:54:49;1.20;99.90
12386;DHT22;6257;57.634;18.310;2024-01-27T07:59:43;1.10;99.90
12386;DHT22;6257;57.634;18.310;2024-01-27T08:04:38;1.10;99.90
12386;DHT22;6257;57.634;18.310;2024-01-27T08:09:37;1.10;99.90
12386;DHT22;6257;57.634;18.310;2024-01-27T08:12:05;1.10;99.90
12386;DHT22;6257;57.634;18.310;2024-01-27T08:14:32;1.20;99.90
12386;DHT22;6257;57.634;18.310;2024-01-27T08:17:01;1.20;99.90
12386;DHT22;6257;57.634;18.310;2024-01-27T08:19:29;1.20;99.90
12386;DHT22;6257;57.634;18.310;2024-01-27T08:21:56;1.20;99.90
12386;DHT22;6257;57.634;18.310;2024-01-27T08:24:23;1.10;99.90
12386;DHT22;6257;57.634;18.310;2024-01-27T08:29:19;1.20;99.90
12386;DHT22;6257;57.634;18.310;2024-01-27T08:36:41;1.10;99.90
12386;DHT22;6257;57.634;18.310;2024-01-27T08:41:38;1.20;99.90
12386;DHT22;6257;57.634;18.310;2024-01-27T08:46:33;1.20;99.90
12386;DHT22;6257;57.634;18.310;2024-01-27T08:49:00;1.20;99.90
12386;DHT22;6257;57.634;18.310;2024-01-27T08:53:55;1.20;99.90
12386;DHT22;6257;57.634;18.310;2024-01-27T08:56:22;1.20;99.90
12386;DHT22;6257;57.634;18.310;2024-01-27T08:58:49;1.10;99.90
12386;DHT22;6257;57.634;18.310;2024-01-27T09:01:18;1.10;99.90
12386;DHT22;6257;57.634;18.310;2024-01-27T09:03:45;1.10;99.90
12386;DHT22;6257;57.634;18.310;2024-01-27T09:06:13;1.10;99.90
12386;DHT22;6257;57.634;18.310;2024-01-27T09:08:40;1.10;99.90
12386;DHT22;6257;57.634;18.310;2024-01-27T09:11:07;1.10;99.90
12386;DHT22;6257;57.634;18.310;2024-01-27T09:13:35;1.10;99.90
12386;DHT22;6257;57.634;18.310;2024-01-27T09:16:02;1.10;99.90
12386;DHT22;6257;57.634;18.310;2024-01-27T09:18:31;1.00;99.90
12386;DHT22;6257;57.634;18.310;2024-01-27T09:20:58;1.00;99.90
12386;DHT22;6257;57.634;18.310;2024-01-27T09:23:25;1.10;99.90
12386;DHT22;6257;57.634;18.310;2024-01-27T09:25:52;1.10;99.90
12386;DHT22;6257;57.634;18.310;2024-01-27T09:33:14;1.20;99.90
12386;DHT22;6257;57.634;18.310;2024-01-27T09:35:44;1.30;99.90
12386;DHT22;6257;57.634;18.310;2024-01-27T09:38:12;1.30;99.90
12386;DHT22;6257;57.634;18.310;2024-01-27T09:40:40;1.30;99.90
12386;DHT22;6257;57.634;18.310;2024-01-27T09:43:12;1.30;99.90
12386;DHT22;6257;57.634;18.310;2024-01-27T09:45:39;1.40;99.90
12386;DHT22;6257;57.634;18.310;2024-01-27T09:48:07;1.40;99.90
12386;DHT22;6257;57.634;18.310;2024-01-27T09:50:37;1.40;99.90
12386;DHT22;6257;57.634;18.310;2024-01-27T09:53:06;1.40;99.90
12386;DHT22;6257;57.634;18.310;2024-01-27T10:02:58;1.50;99.90
12386;DHT22;6257;57.634;18.310;2024-01-27T10:05:25;1.50;99.90
12386;DHT22;6257;57.634;18.310;2024-01-27T10:07:53;1.60;99.90
12386;DHT22;6257;57.634;18.310;2024-01-27T10:12:52;1.70;99.90
12386;DHT22;6257;57.634;18.310;2024-01-27T10:15:20;1.60;99.90
12386;DHT22;6257;57.634;18.310;2024-01-27T10:20:14;1.60;99.90
12386;DHT22;6257;57.634;18.310;2024-01-27T10:22:45;1.60;99.90
12386;DHT22;6257;57.634;18.310;2024-01-27T10:27:41;1.50;99.90
12386;DHT22;6257;57.634;18.310;2024-01-27T10:30:15;1.50;99.90
12386;DHT22;6257;57.634;18.310;2024-01-27T10:32:54;1.60;99.90
12386;DHT22;6257;57.634;18.310;2024-01-27T10:35:21;1.60;99.90
12386;DHT22;6257;57.634;18.310;2024-01-27T10:37:51;1.60;99.90
12386;DHT22;6257;57.634;18.310;2024-01-27T10:40:18;1.60;99.90
12386;DHT22;6257;57.634;18.310;2024-01-27T10:42:51;1.60;99.90
12386;DHT22;6257;57.634;18.310;2024-01-27T10:45:23;1.60;99.90
12386;DHT22;6257;57.634;18.310;2024-01-27T10:47:51;1.60;99.90
12386;DHT22;6257;57.634;18.310;2024-01-27T10:50:18;1.70;99.90
12386;DHT22;6257;57.634;18.310;2024-01-27T10:52:46;1.70;99.90
12386;DHT22;6257;57.634;18.310;2024-01-27T10:55:14;1.80;99.90
12386;DHT22;6257;57.634;18.310;2024-01-27T10:57:42;1.70;99.90
12386;DHT22;6257;57.634;18.310;2024-01-27T11:00:14;1.80;99.90
12386;DHT22;6257;57.634;18.310;2024-01-27T11:02:42;1.80;99.90
12386;DHT22;6257;57.634;18.310;2024-01-27T11:05:11;1.90;99.90
12386;DHT22;6257;57.634;18.310;2024-01-27T11:07:41;1.90;99.90
12386;DHT22;6257;57.634;18.310;2024-01-27T11:10:09;1.90;99.90
12386;DHT22;6257;57.634;18.310;2024-01-27T11:12:36;1.90;99.90
12386;DHT22;6257;57.634;18.310;2024-01-27T11:15:04;1.90;99.90
12386;DHT22;6257;57.634;18.310;2024-01-27T11:17:39;2.00;99.90
12386;DHT22;6257;57.634;18.310;2024-01-27T11:20:08;2.00;99.90
12386;DHT22;6257;57.634;18.310;2024-01-27T11:22:37;2.00;99.90
12386;DHT22;6257;57.634;18.310;2024-01-27T11:25:09;2.10;99.90
12386;DHT22;6257;57.634;18.310;2024-01-27T11:27:41;2.10;99.90
12386;DHT22;6257;57.634;18.310;2024-01-27T11:30:25;2.10;99.90
12386;DHT22;6257;57.634;18.310;2024-01-27T11:35:21;2.20;99.90
12386;DHT22;6257;57.634;18.310;2024-01-27T11:37:48;2.20;99.90
12386;DHT22;6257;57.634;18.310;2024-01-27T11:40:16;2.20;99.90
12386;DHT22;6257;57.634;18.310;2024-01-27T11:42:43;2.20;99.90
12386;DHT22;6257;57.634;18.310;2024-01-27T11:45:10;2.20;99.90
12386;DHT22;6257;57.634;18.310;2024-01-27T11:47:37;2.20;99.90
12386;DHT22;6257;57.634;18.310;2024-01-27T11:50:06;2.20;99.90
12386;DHT22;6257;57.634;18.310;2024-01-27T11:52:34;2.50;99.90
12386;DHT22;6257;57.634;18.310;2024-01-27T11:55:01;2.20;99.90
12386;DHT22;6257;57.634;18.310;2024-01-27T11:57:29;2.20;99.90
12386;DHT22;6257;57.634;18.310;2024-01-27T11:59:56;2.30;99.90
12386;DHT22;6257;57.634;18.310;2024-01-27T12:02:23;2.30;99.90
12386;DHT22;6257;57.634;18.310;2024-01-27T12:04:50;2.30;99.90
12386;DHT22;6257;57.634;18.310;2024-01-27T12:07:19;2.30;99.90
12386;DHT22;6257;57.634;18.310;2024-01-27T12:09:49;2.40;99.90
12386;DHT22;6257;57.634;18.310;2024-01-27T12:14:46;2.40;99.90
12386;DHT22;6257;57.634;18.310;2024-01-27T12:17:13;2.40;99.90
12386;DHT22;6257;57.634;18.310;2024-01-27T12:19:46;2.40;99.90
12386;DHT22;6257;57.634;18.310;2024-01-27T12:22:23;2.40;99.90
12386;DHT22;6257;57.634;18.310;2024-01-27T12:24:51;2.30;99.90
12386;DHT22;6257;57.634;18.310;2024-01-27T12:29:48;2.30;99.90
12386;DHT22;6257;57.634;18.310;2024-01-27T12:32:15;2.40;99.90
12386;DHT22;6257;57.634;18.310;2024-01-27T12:34:43;2.40;99.90
12386;DHT22;6257;57.634;18.310;2024-01-27T12:37:12;2.40;99.90
12386;DHT22;6257;57.634;18.310;2024-01-27T12:39:42;2.30;99.90
12386;DHT22;6257;57.634;18.310;2024-01-27T12:42:10;2.30;99.90
12386;DHT22;6257;57.634;18.310;2024-01-27T12:44:37;2.40;99.90
12386;DHT22;6257;57.634;18.310;2024-01-27T12:49:32;2.30;99.90
12386;DHT22;6257;57.634;18.310;2024-01-27T12:51:59;2.40;99.90
12386;DHT22;6257;57.634;18.310;2024-01-27T12:54:26;2.40;99.90
12386;DHT22;6257;57.634;18.310;2024-01-27T12:56:56;2.30;99.90
12386;DHT22;6257;57.634;18.310;2024-01-27T12:59:23;2.30;99.90
12386;DHT22;6257;57.634;18.310;2024-01-27T13:01:50;2.30;99.90
12386;DHT22;6257;57.634;18.310;2024-01-27T13:04:18;2.30;99.90
12386;DHT22;6257;57.634;18.310;2024-01-27T13:06:45;2.30;99.90
12386;DHT22;6257;57.634;18.310;2024-01-27T13:09:12;2.30;99.90
12386;DHT22;6257;57.634;18.310;2024-01-27T13:11:39;2.30;99.90
12386;DHT22;6257;57.634;18.310;2024-01-27T13:14:08;2.30;99.90
12386;DHT22;6257;57.634;18.310;2024-01-27T13:16:38;2.30;99.90
12386;DHT22;6257;57.634;18.310;2024-01-27T13:19:05;2.30;99.90
12386;DHT22;6257;57.634;18.310;2024-01-27T13:21:32;2.20;99.90
12386;DHT22;6257;57.634;18.310;2024-01-27T13:23:59;2.20;99.90
12386;DHT22;6257;57.634;18.310;2024-01-27T13:26:27;4.10;99.90
12386;DHT22;6257;57.634;18.310;2024-01-27T13:28:56;2.20;99.90
12386;DHT22;6257;57.634;18.310;2024-01-27T13:31:24;2.20;99.90
12386;DHT22;6257;57.634;18.310;2024-01-27T13:33:51;2.30;99.90
12386;DHT22;6257;57.634;18.310;2024-01-27T13:36:18;2.20;99.90
12386;DHT22;6257;57.634;18.310;2024-01-27T13:38:46;2.20;99.90
12386;DHT22;6257;57.634;18.310;2024-01-27T13:41:13;2.10;99.90
12386;DHT22;6257;57.634;18.310;2024-01-27T13:43:41;2.00;99.90
12386;DHT22;6257;57.634;18.310;2024-01-27T13:46:08;2.00;99.90
12386;DHT22;6257;57.634;18.310;2024-01-27T13:48:37;1.90;99.90
12386;DHT22;6257;57.634;18.310;2024-01-27T13:51:04;1.90;99.90
12386;DHT22;6257;57.634;18.310;2024-01-27T13:53:32;1.80;99.90
12386;DHT22;6257;57.634;18.310;2024-01-27T13:56:00;1.70;99.90
12386;DHT22;6257;57.634;18.310;2024-01-27T13:58:27;1.70;99.90
12386;DHT22;6257;57.634;18.310;2024-01-27T14:00:54;1.70;99.90
12386;DHT22;6257;57.634;18.310;2024-01-27T14:03:21;1.60;99.90
12386;DHT22;6257;57.634;18.310;2024-01-27T14:05:50;1.60;99.90
12386;DHT22;6257;57.634;18.310;2024-01-27T14:08:17;1.50;99.90
12386;DHT22;6257;57.634;18.310;2024-01-27T14:10:45;1.50;99.90
12386;DHT22;6257;57.634;18.310;2024-01-27T14:13:14;1.50;99.90
12386;DHT22;6257;57.634;18.310;2024-01-27T14:15:41;1.40;99.90
12386;DHT22;6257;57.634;18.310;2024-01-27T14:18:08;1.40;99.90
12386;DHT22;6257;57.634;18.310;2024-01-27T14:20:36;1.40;99.90
12386;DHT22;6257;57.634;18.310;2024-01-27T14:23:05;1.40;99.90
12386;DHT22;6257;57.634;18.310;2024-01-27T14:25:32;1.30;99.90
12386;DHT22;6257;57.634;18.310;2024-01-27T14:27:59;1.20;99.90
12386;DHT22;6257;57.634;18.310;2024-01-27T14:30:26;1.20;99.90
12386;DHT22;6257;57.634;18.310;2024-01-27T14:32:53;1.20;99.90
12386;DHT22;6257;57.634;18.310;2024-01-27T14:35:20;1.10;99.90
12386;DHT22;6257;57.634;18.310;2024-01-27T14:40:17;1.10;99.90
12386;DHT22;6257;57.634;18.310;2024-01-27T14:45:22;1.10;99.90
12386;DHT22;6257;57.634;18.310;2024-01-27T14:47:49;1.00;99.90
12386;DHT22;6257;57.634;18.310;2024-01-27T14:50:16;1.00;99.90
12386;DHT22;6257;57.634;18.310;2024-01-27T14:55:12;0.80;99.90
12386;DHT22;6257;57.634;18.310;2024-01-27T14:57:42;0.70;99.90
12386;DHT22;6257;57.634;18.310;2024-01-27T15:00:10;0.60;99.90
12386;DHT22;6257;57.634;18.310;2024-01-27T15:02:40;0.60;99.90
12386;DHT22;6257;57.634;18.310;2024-01-27T15:05:09;0.50;99.90
12386;DHT22;6257;57.634;18.310;2024-01-27T15:07:36;0.40;99.90
12386;DHT22;6257;57.634;18.310;2024-01-27T15:10:05;0.90;99.90
12386;DHT22;6257;57.634;18.310;2024-01-27T15:12:32;0.30;99.90
12386;DHT22;6257;57.634;18.310;2024-01-27T15:15:00;0.30;99.90
12386;DHT22;6257;57.634;18.310;2024-01-27T15:17:28;0.30;99.90
12386;DHT22;6257;57.634;18.310;2024-01-27T15:19:55;2.20;99.90
12386;DHT22;6257;57.634;18.310;2024-01-27T15:22:23;0.20;99.90
12386;DHT22;6257;57.634;18.310;2024-01-27T15:24:50;0.20;99.90
12386;DHT22;6257;57.634;18.310;2024-01-27T15:27:18;0.10;99.90
12386;DHT22;6257;57.634;18.310;2024-01-27T15:29:45;0.10;99.90
12386;DHT22;6257;57.634;18.310;2024-01-27T15:32:14;2.40;99.90
12386;DHT22;6257;57.634;18.310;2024-01-27T15:34:46;3.50;99.90
12386;DHT22;6257;57.634;18.310;2024-01-27T15:37:15;0.10;99.90
12386;DHT22;6257;57.634;18.310;2024-01-27T15:39:42;0.10;99.90
12386;DHT22;6257;57.634;18.310;2024-01-27T15:42:09;0.20;99.90
12386;DHT22;6257;57.634;18.310;2024-01-27T15:44:37;0.30;99.90
12386;DHT22;6257;57.634;18.310;2024-01-27T15:47:04;1.90;99.90
12386;DHT22;6257;57.634;18.310;2024-01-27T15:49:33;0.50;99.90
12386;DHT22;6257;57.634;18.310;2024-01-27T15:52:00;0.70;99.90
12386;DHT22;6257;57.634;18.310;2024-01-27T15:54:27;1.00;99.90
12386;DHT22;6257;57.634;18.310;2024-01-27T15:56:54;1.10;99.90
12386;DHT22;6257;57.634;18.310;2024-01-27T15:59:21;0.80;99.90
12386;DHT22;6257;57.634;18.310;2024-01-27T16:01:48;0.90;99.90
12386;DHT22;6257;57.634;18.310;2024-01-27T16:04:15;0.90;99.90
12386;DHT22;6257;57.634;18.310;2024-01-27T16:06:44;0.50;99.90
12386;DHT22;6257;57.634;18.310;2024-01-27T16:09:11;0.50;99.90
12386;DHT22;6257;57.634;18.310;2024-01-27T16:11:38;0.50;99.90
12386;DHT22;6257;57.634;18.310;2024-01-27T16:14:05;0.90;99.90
12386;DHT22;6257;57.634;18.310;2024-01-27T16:16:32;0.60;99.90
12386;DHT22;6257;57.634;18.310;2024-01-27T16:18:59;0.60;99.90
12386;DHT22;6257;57.634;18.310;2024-01-27T16:23:54;0.50;99.90
12386;DHT22;6257;57.634;18.310;2024-01-27T16:26:22;0.50;99.90
12386;DHT22;6257;57.634;18.310;2024-01-27T16:28:50;0.50;99.90
12386;DHT22;6257;57.634;18.310;2024-01-27T16:31:17;0.50;99.90
12386;DHT22;6257;57.634;18.310;2024-01-27T16:33:44;0.50;99.90
12386;DHT22;6257;57.634;18.310;2024-01-27T16:36:19;1.10;99.90
12386;DHT22;6257;57.634;18.310;2024-01-27T16:38:46;1.00;99.90
12386;DHT22;6257;57.634;18.310;2024-01-27T16:41:15;0.90;99.90
12386;DHT22;6257;57.634;18.310;2024-01-27T16:43:42;0.80;99.90
12386;DHT22;6257;57.634;18.310;2024-01-27T16:46:09;0.70;99.90
12386;DHT22;6257;57.634;18.310;2024-01-27T16:48:38;0.90;99.90
12386;DHT22;6257;57.634;18.310;2024-01-27T16:51:05;1.00;99.90
12386;DHT22;6257;57.634;18.310;2024-01-27T16:53:33;0.70;99.90
12386;DHT22;6257;57.634;18.310;2024-01-27T16:56:01;1.10;99.90
12386;DHT22;6257;57.634;18.310;2024-01-27T17:00:56;0.80;99.90
12386;DHT22;6257;57.634;18.310;2024-01-27T17:03:24;2.90;99.90
12386;DHT22;6257;57.634;18.310;2024-01-27T17:05:51;0.90;99.90
12386;DHT22;6257;57.634;18.310;2024-01-27T17:08:18;0.90;99.90
12386;DHT22;6257;57.634;18.310;2024-01-27T17:10:45;1.00;99.90
12386;DHT22;6257;57.634;18.310;2024-01-27T17:13:12;0.90;99.90
12386;DHT22;6257;57.634;18.310;2024-01-27T17:18:11;1.10;99.90
12386;DHT22;6257;57.634;18.310;2024-01-27T17:20:38;1.20;99.90
12386;DHT22;6257;57.634;18.310;2024-01-27T17:23:05;1.20;99.90
12386;DHT22;6257;57.634;18.310;2024-01-27T17:25:32;1.30;99.90